Time;durP1;ratioP1;P1;durP2;ratioP2;P2;SDS_P1;SDS_P2;PMS_P1;PMS_P2;Temp;Humidity;BMP_temperature;BMP_pressure;BME280_temperature;BME280_humidity;BME280_pressure;Samples;Min_cycle;Max_cycle;Signal;HPM_P1;HPM_P2
2022/09/26 00:02:17;;;;;;;4.17;3.47;;;;;;;23.41;56.86;96883.97;5014424;28;20198;-31
2022/09/26 00:04:44;;;;;;;5.53;4.07;;;;;;;23.42;56.93;96880.56;5022007;28;20666;-31
2022/09/26 00:07:11;;;;;;;3.87;3.57;;;;;;;23.36;57.10;96870.25;5021788;28;20213;-31
2022/09/26 00:09:37;;;;;;;5.47;3.60;;;;;;;23.41;56.84;96873.69;5024679;28;20297;-31
2022/09/26 00:12:04;;;;;;;4.10;3.40;;;;;;;23.42;56.92;96878.00;5021465;28;20198;-31
2022/09/26 00:14:31;;;;;;;4.30;3.77;;;;;;;23.38;56.85;96865.13;5018821;28;20190;-31
2022/09/26 00:16:57;;;;;;;4.50;4.10;;;;;;;23.41;56.89;96878.00;5021155;28;20197;-31
2022/09/26 00:19:24;;;;;;;5.50;3.77;;;;;;;23.42;57.00;96867.75;5021083;28;20248;-31
2022/09/26 00:21:51;;;;;;;4.00;3.70;;;;;;;23.41;56.92;96865.16;5025152;28;20204;-31
2022/09/26 00:24:17;;;;;;;3.57;3.27;;;;;;;23.40;57.19;96859.16;5020115;28;20218;-31
2022/09/26 00:26:44;;;;;;;3.90;3.40;;;;;;;23.39;57.12;96860.03;5025307;28;20202;-31
2022/09/26 00:29:11;;;;;;;3.77;3.40;;;;;;;23.38;56.91;96858.28;5031596;28;20232;-31
2022/09/26 00:31:39;;;;;;;3.50;3.03;;;;;;;23.34;57.03;96852.28;5020056;28;20649;-31
2022/09/26 00:34:06;;;;;;;3.73;3.33;;;;;;;23.31;56.78;96843.69;5020091;28;20207;-31
2022/09/26 00:36:32;;;;;;;3.70;3.40;;;;;;;23.38;57.09;96865.13;5016285;28;20217;-31
2022/09/26 00:39:05;;;;;;;5.17;3.50;;;;;;;23.33;56.98;96853.09;5015205;28;20260;-31
2022/09/26 00:41:32;;;;;;;3.87;3.50;;;;;;;23.30;56.93;96849.66;5018957;28;20213;-31
2022/09/26 00:43:58;;;;;;;4.10;3.43;;;;;;;23.29;57.11;96845.34;5017635;28;20224;-31
2022/09/26 00:46:42;;;;;;;3.63;3.33;;;;;;;23.32;57.19;96847.97;5041117;28;20205;-31
2022/09/26 00:49:34;;;;;;;3.63;3.33;;;;;;;23.31;57.06;96842.00;5029949;28;20217;-31
2022/09/26 00:52:05;;;;;;;4.03;3.63;;;;;;;23.26;57.04;96830.81;5021817;28;20212;-31
2022/09/26 00:54:32;;;;;;;3.07;2.87;;;;;;;23.34;57.05;96844.59;5032253;28;20189;-31
2022/09/26 00:57:03;;;;;;;3.17;2.80;;;;;;;23.33;57.00;96836.88;5010619;28;20235;-31
2022/09/26 00:59:38;;;;;;;3.30;3.00;;;;;;;23.33;57.07;96826.63;5020029;28;20218;-31
2022/09/26 01:02:04;;;;;;;3.30;3.00;;;;;;;23.34;56.74;96834.34;5038272;28;20539;-31
2022/09/26 01:04:33;;;;;;;3.43;3.10;;;;;;;23.31;56.97;96823.16;5027293;28;20209;-31
2022/09/26 01:07:00;;;;;;;3.50;3.20;;;;;;;23.34;56.95;96830.91;5008064;28;20193;-31
2022/09/26 01:09:27;;;;;;;3.33;3.03;;;;;;;23.31;57.08;96816.34;5013669;28;20233;-31
2022/09/26 01:11:54;;;;;;;3.20;2.90;;;;;;;23.31;56.93;96816.34;5030465;28;20198;-31
2022/09/26 01:14:20;;;;;;;3.23;2.93;;;;;;;23.29;56.96;96812.03;5024809;28;20205;-31
2022/09/26 01:16:47;;;;;;;3.40;3.10;;;;;;;23.28;56.96;96813.75;5007010;28;20205;-31
2022/09/26 01:19:17;;;;;;;3.30;3.00;;;;;;;23.35;56.90;96819.78;5027504;28;20317;-31
2022/09/26 01:22:11;;;;;;;3.33;3.03;;;;;;;23.35;57.04;96823.22;5018036;28;20198;-31
2022/09/26 01:24:54;;;;;;;3.17;2.97;;;;;;;23.36;56.82;96821.53;5030971;28;20214;-31
2022/09/26 01:27:23;;;;;;;3.07;2.83;;;;;;;23.36;56.99;96812.09;5006803;28;20205;-31
2022/09/26 01:30:09;;;;;;;3.73;3.43;;;;;;;23.37;56.89;96812.97;5021481;28;20590;-31
2022/09/26 01:33:06;;;;;;;3.53;3.23;;;;;;;23.36;57.01;96809.53;5030057;28;20197;-31
2022/09/26 01:35:42;;;;;;;3.93;3.03;;;;;;;23.38;56.72;96813.84;5023612;28;20234;-31
2022/09/26 01:38:16;;;;;;;3.40;3.10;;;;;;;23.36;56.99;96806.16;5016925;28;20210;-31
2022/09/26 01:40:48;;;;;;;2.83;2.63;;;;;;;23.38;56.91;96808.72;5027068;28;20239;-31
2022/09/26 01:43:22;;;;;;;3.77;3.30;;;;;;;23.37;57.16;96810.41;5020384;28;20202;-31
2022/09/26 01:45:52;;;;;;;3.50;3.20;;;;;;;23.38;56.90;96815.56;5010322;28;20209;-31
2022/09/26 01:48:50;;;;;;;3.20;2.90;;;;;;;23.39;56.83;96811.31;5038667;28;20206;-31
2022/09/26 01:51:23;;;;;;;3.33;3.03;;;;;;;23.39;57.06;96812.16;5027156;28;20213;-31
2022/09/26 01:54:00;;;;;;;3.07;2.87;;;;;;;23.39;56.87;96808.75;5021152;28;20573;-31
2022/09/26 01:56:28;;;;;;;4.43;3.30;;;;;;;23.37;56.89;96805.28;5022026;28;20197;-31
2022/09/26 01:59:07;;;;;;;5.23;3.30;;;;;;;23.39;56.87;96816.44;5029597;28;20228;-31
2022/09/26 02:01:37;;;;;;;3.20;2.90;;;;;;;23.39;56.78;96812.16;5010202;28;20657;-31
2022/09/26 02:04:09;;;;;;;3.37;3.07;;;;;;;22.82;57.13;96708.06;5011617;28;20866;-31
2022/09/26 02:06:40;;;;;;;3.40;3.10;;;;;;;23.38;57.23;96815.56;5009592;28;20201;-31
2022/09/26 02:09:09;;;;;;;3.20;2.90;;;;;;;23.38;57.16;96816.41;5026905;28;20226;-31
2022/09/26 02:11:37;;;;;;;3.13;2.83;;;;;;;23.28;57.01;96798.38;5031418;28;20574;-31
2022/09/26 02:14:17;;;;;;;3.73;3.20;;;;;;;23.29;56.76;96796.66;5007461;28;20205;-31
2022/09/26 02:16:49;;;;;;;3.90;3.10;;;;;;;23.36;56.99;96808.72;5026435;28;20193;-31
2022/09/26 02:19:20;;;;;;;3.67;3.37;;;;;;;23.34;57.09;96811.25;5014834;28;20226;-31
2022/09/26 02:21:47;;;;;;;3.67;3.23;;;;;;;23.30;56.90;96803.50;5021266;28;20676;-31
2022/09/26 02:24:13;;;;;;;3.50;3.20;;;;;;;23.26;57.10;96794.91;5007030;28;20217;-31
2022/09/26 02:26:41;;;;;;;3.03;2.83;;;;;;;23.34;56.94;96807.81;5012289;28;20202;-31
2022/09/26 02:29:08;;;;;;;3.50;3.20;;;;;;;23.33;57.08;96806.09;5026717;28;20229;-31
2022/09/26 02:31:37;;;;;;;3.33;3.03;;;;;;;23.21;56.95;96786.28;5007450;28;20206;-31
2022/09/26 02:34:03;;;;;;;4.27;3.07;;;;;;;23.25;56.79;96787.22;5013518;28;20236;-31
2022/09/26 02:36:33;;;;;;;3.27;2.97;;;;;;;23.32;57.00;96804.38;5030041;28;20582;-31
2022/09/26 02:39:00;;;;;;;3.17;2.87;;;;;;;23.29;57.19;96794.94;5020562;28;20288;-31
2022/09/26 02:41:28;;;;;;;3.17;2.87;;;;;;;23.31;56.97;96808.66;5024967;28;20213;-31
2022/09/26 02:44:13;;;;;;;3.43;3.13;;;;;;;23.31;57.11;96803.53;5027467;28;20225;-31
2022/09/26 02:47:01;;;;;;;3.00;2.70;;;;;;;23.31;56.92;96790.72;5018703;28;20212;-31
2022/09/26 02:49:51;;;;;;;3.20;2.90;;;;;;;23.22;56.92;96779.44;5017447;28;20217;-31
2022/09/26 02:52:20;;;;;;;2.70;2.50;;;;;;;23.24;56.90;96785.50;5026958;28;20213;-31
2022/09/26 02:55:30;;;;;;;3.30;3.00;;;;;;;23.32;57.00;96796.69;5030296;28;20198;-31
2022/09/26 02:58:23;;;;;;;3.40;3.10;;;;;;;23.28;56.90;96792.38;5005441;28;20206;-31
2022/09/26 03:01:09;;;;;;;4.70;2.93;;;;;;;23.32;56.97;96788.97;5028056;28;20198;-31
2022/09/26 03:03:46;;;;;;;3.30;3.00;;;;;;;23.23;56.81;96778.59;5020291;28;20206;-31
2022/09/26 03:06:15;;;;;;;3.43;3.13;;;;;;;23.23;56.91;96778.59;5002485;28;20212;-31
2022/09/26 03:08:46;;;;;;;2.77;2.57;;;;;;;23.22;56.93;96774.31;4995337;28;20301;-31
2022/09/26 03:11:15;;;;;;;2.83;2.63;;;;;;;23.33;57.16;96790.72;5016051;28;20212;-31
2022/09/26 03:13:42;;;;;;;3.40;3.10;;;;;;;23.22;57.07;96774.31;5016951;28;20190;-31
2022/09/26 03:16:08;;;;;;;3.17;2.90;;;;;;;23.27;56.94;96785.53;5006411;28;20606;-31
2022/09/26 03:18:39;;;;;;;4.50;2.90;;;;;;;23.25;57.05;96777.81;5016895;28;20198;-31
2022/09/26 03:21:06;;;;;;;2.83;2.63;;;;;;;23.34;56.90;96789.88;5021432;28;20664;-31
2022/09/26 03:23:32;;;;;;;2.97;2.77;;;;;;;23.35;56.98;96791.56;5045003;28;20507;-31
2022/09/26 03:26:19;;;;;;;3.10;2.90;;;;;;;23.35;56.95;96787.31;5014302;28;20573;-31
2022/09/26 03:28:45;;;;;;;3.00;2.80;;;;;;;23.36;56.89;96788.19;5015417;28;20233;-31
2022/09/26 03:31:12;;;;;;;2.97;2.77;;;;;;;23.38;56.89;96788.22;5033736;28;20205;-31
2022/09/26 03:33:39;;;;;;;3.07;2.77;;;;;;;23.34;56.94;96783.06;5029732;28;20656;-31
2022/09/26 03:36:06;;;;;;;3.30;3.00;;;;;;;22.72;56.92;96672.97;5016817;28;20229;-31
2022/09/26 03:38:32;;;;;;;3.00;2.70;;;;;;;23.38;56.87;96775.38;5018446;28;20198;-31
2022/09/26 03:40:59;;;;;;;3.10;2.90;;;;;;;23.33;56.93;96770.22;5026213;28;20302;-31
2022/09/26 03:43:26;;;;;;;3.07;2.77;;;;;;;23.39;56.82;96775.41;5021989;28;20576;-31
2022/09/26 03:45:53;;;;;;;3.20;2.90;;;;;;;23.38;56.89;96770.25;5014969;28;20233;-31
2022/09/26 03:48:20;;;;;;;3.27;2.70;;;;;;;23.18;56.89;96740.09;5018429;28;20740;-31
2022/09/26 03:50:47;;;;;;;2.87;2.67;;;;;;;23.38;56.66;96765.13;5029451;28;20217;-31
2022/09/26 03:53:13;;;;;;;3.30;3.00;;;;;;;23.35;56.94;96763.38;5021394;28;20589;-31
2022/09/26 03:55:40;;;;;;;2.90;2.70;;;;;;;23.35;57.11;96758.25;5031964;28;20200;-31
2022/09/26 03:58:06;;;;;;;2.97;2.77;;;;;;;23.35;57.00;96763.38;5024261;28;20205;-31
2022/09/26 04:00:33;;;;;;;2.80;2.60;;;;;;;23.35;56.97;96760.81;5022814;28;20233;-31
2022/09/26 04:03:03;;;;;;;2.90;2.60;;;;;;;23.34;57.28;96756.53;5024788;28;20582;-31
2022/09/26 04:05:30;;;;;;;3.20;2.90;;;;;;;23.33;57.00;96758.22;5031433;28;20224;-31
2022/09/26 04:07:57;;;;;;;3.10;2.90;;;;;;;23.32;57.03;96758.22;5032031;28;20774;-31
2022/09/26 04:10:24;;;;;;;3.00;2.80;;;;;;;23.33;57.03;96762.53;5030228;28;20221;-31
2022/09/26 04:12:50;;;;;;;2.80;2.60;;;;;;;23.32;57.19;96758.22;5031892;28;20197;-31
2022/09/26 04:15:17;;;;;;;3.10;2.90;;;;;;;23.31;57.15;96756.50;5028465;28;20707;-31
2022/09/26 04:17:43;;;;;;;3.27;2.97;;;;;;;23.30;57.15;96755.63;5039135;28;20213;-31
2022/09/26 04:20:10;;;;;;;3.10;2.90;;;;;;;23.30;57.05;96757.38;5022844;28;20215;-31
2022/09/26 04:22:37;;;;;;;2.90;2.70;;;;;;;23.28;57.14;96752.22;5028185;28;20204;-31
2022/09/26 04:25:04;;;;;;;3.20;2.90;;;;;;;23.30;57.07;96755.63;5016331;28;20701;-31
2022/09/26 04:27:30;;;;;;;3.00;2.80;;;;;;;23.30;57.18;96750.50;5018594;28;20567;-31
2022/09/26 04:29:57;;;;;;;3.00;2.80;;;;;;;23.16;56.97;96740.94;5026970;28;20259;-31
2022/09/26 04:32:23;;;;;;;3.30;3.00;;;;;;;23.24;57.05;96742.75;5026865;28;20204;-31
2022/09/26 04:34:50;;;;;;;3.10;2.87;;;;;;;23.31;57.03;96753.94;5026707;28;20194;-31
2022/09/26 04:37:19;;;;;;;3.33;2.80;;;;;;;23.32;56.81;96759.09;5025906;28;20524;-31
2022/09/26 04:39:46;;;;;;;3.67;3.13;;;;;;;23.31;56.92;96753.94;5028975;28;20316;-31
2022/09/26 04:42:13;;;;;;;3.30;3.00;;;;;;;23.32;57.16;96753.97;5024546;28;20212;-31
2022/09/26 04:44:39;;;;;;;3.30;3.00;;;;;;;23.32;57.02;96753.09;5032760;28;20218;-31
2022/09/26 04:47:07;;;;;;;2.80;2.60;;;;;;;23.33;57.23;96754.84;5029371;28;20213;-31
2022/09/26 04:49:33;;;;;;;2.93;2.73;;;;;;;23.28;57.00;96739.41;5029279;28;20213;-31
2022/09/26 04:52:00;;;;;;;3.17;2.90;;;;;;;23.29;56.90;96732.56;5032245;28;20206;-31
2022/09/26 04:54:26;;;;;;;2.80;2.60;;;;;;;23.35;56.85;96745.44;5032969;28;20228;-31
2022/09/26 04:56:53;;;;;;;2.90;2.70;;;;;;;23.30;56.93;96747.94;5030931;28;20213;-31
2022/09/26 04:59:19;;;;;;;3.30;3.00;;;;;;;23.35;57.04;96748.84;5030699;28;20222;-31
2022/09/26 05:01:46;;;;;;;2.97;2.77;;;;;;;23.33;56.98;96745.41;5018623;28;20194;-31
2022/09/26 05:04:13;;;;;;;2.70;2.50;;;;;;;23.38;56.84;96747.19;5031658;28;20225;-31
2022/09/26 05:06:40;;;;;;;3.20;2.87;;;;;;;23.37;57.00;96746.31;5028136;28;20205;-31
2022/09/26 05:09:06;;;;;;;3.00;2.80;;;;;;;23.20;56.78;96720.47;5022221;28;20217;-31
2022/09/26 05:11:33;;;;;;;4.50;2.80;;;;;;;23.38;56.81;96745.47;5020524;28;20209;-31
2022/09/26 05:14:01;;;;;;;4.40;3.63;;;;;;;23.38;55.43;96743.75;5017550;28;20478;-31
2022/09/26 05:16:28;;;;;;;4.63;3.60;;;;;;;23.38;54.79;96744.63;5019705;28;20202;-31
2022/09/26 05:18:55;;;;;;;4.00;3.10;;;;;;;23.38;54.22;96746.31;5018320;28;20790;-31
2022/09/26 05:21:22;;;;;;;5.70;3.70;;;;;;;23.38;53.75;96745.47;5026419;28;20208;-31
2022/09/26 05:26:42;;;;;;;5.17;3.80;;;;;;;23.37;53.39;96754.00;5029879;28;20295;-31
2022/09/26 05:29:08;;;;;;;5.50;4.27;;;;;;;23.36;53.32;96752.28;5023399;28;20217;-31
2022/09/26 05:31:36;;;;;;;6.03;4.30;;;;;;;23.35;53.05;96755.69;5030991;28;20208;-31
2022/09/26 05:34:04;;;;;;;5.90;4.40;;;;;;;23.34;53.14;96757.41;5027772;28;20688;-31
2022/09/26 05:36:30;;;;;;;5.93;4.80;;;;;;;23.31;53.02;96762.50;5028308;28;20256;-32
2022/09/26 05:38:57;;;;;;;6.47;4.10;;;;;;;23.31;53.12;96756.50;5020343;28;20287;-31
2022/09/26 05:41:26;;;;;;;5.90;4.73;;;;;;;23.30;53.00;96758.19;5021367;28;20601;-31
2022/09/26 05:43:53;;;;;;;5.77;4.50;;;;;;;23.29;52.96;96746.22;5020898;28;20206;-31
2022/09/26 05:46:20;;;;;;;5.73;4.20;;;;;;;23.23;53.25;96729.88;5025986;28;20218;-31
2022/09/26 05:48:46;;;;;;;5.23;4.33;;;;;;;23.26;53.41;96729.94;5024102;28;20222;-31
2022/09/26 05:51:14;;;;;;;5.10;4.43;;;;;;;23.27;53.38;96727.41;5031993;28;20201;-31
2022/09/26 05:53:42;;;;;;;5.93;4.57;;;;;;;23.27;53.65;96729.97;5031313;28;20680;-31
2022/09/26 05:56:09;;;;;;;5.90;4.60;;;;;;;23.26;53.86;96733.38;5029415;28;20197;-31
2022/09/26 05:58:41;;;;;;;5.43;4.40;;;;;;;23.25;53.97;96734.25;5016756;28;20209;-31
2022/09/26 06:01:07;;;;;;;6.23;4.10;;;;;;;23.25;53.98;96734.25;5026320;28;20202;-31
2022/09/26 06:03:34;;;;;;;6.23;4.13;;;;;;;23.25;53.83;96731.69;5025320;28;20202;-31
2022/09/26 06:06:11;;;;;;;5.43;4.10;;;;;;;23.25;54.27;96736.81;5025543;28;20264;-31
2022/09/26 06:08:38;;;;;;;5.17;4.10;;;;;;;23.22;54.09;96734.19;5022090;28;20205;-31
2022/09/26 06:11:06;;;;;;;4.50;3.83;;;;;;;23.25;54.39;96736.81;5024339;28;20248;-31
2022/09/26 06:13:33;;;;;;;6.27;4.20;;;;;;;23.26;54.24;96748.78;5017841;28;20213;-31
2022/09/26 06:16:04;;;;;;;8.73;4.30;;;;;;;23.26;53.39;96741.06;5023495;28;20213;-31
2022/09/26 06:18:34;;;;;;;6.17;4.33;;;;;;;23.26;53.31;96723.13;5029068;28;20198;-31
2022/09/26 06:21:02;;;;;;;9.23;4.30;;;;;;;23.21;53.18;96727.31;5024874;28;20592;-31
2022/09/26 06:23:30;;;;;;;6.00;4.40;;;;;;;23.26;53.53;96725.69;5012696;28;20657;-31
2022/09/26 06:25:57;;;;;;;10.13;4.23;;;;;;;23.27;53.76;96731.69;5017628;28;20222;-31
2022/09/26 06:28:25;;;;;;;9.13;4.13;;;;;;;23.26;53.78;96737.66;5022109;28;20202;-31
2022/09/26 06:30:52;;;;;;;4.53;3.87;;;;;;;23.26;53.99;96735.09;5023295;28;20194;-31
2022/09/26 06:33:19;;;;;;;4.73;3.70;;;;;;;23.11;54.19;96699.00;5020213;28;20213;-31
2022/09/26 06:35:46;;;;;;;4.43;3.97;;;;;;;23.27;54.30;96735.09;5027868;28;20546;-31
2022/09/26 06:38:12;;;;;;;4.50;3.53;;;;;;;23.21;54.37;96732.44;5012347;28;20217;-31
2022/09/26 06:40:39;;;;;;;3.87;3.47;;;;;;;23.23;54.57;96725.63;5015270;28;20225;-31
2022/09/26 06:43:05;;;;;;;4.03;3.57;;;;;;;23.28;54.45;96735.97;5020926;28;20201;-31
2022/09/26 06:45:32;;;;;;;5.33;3.63;;;;;;;23.28;54.29;96739.41;5032534;28;20214;-31
2022/09/26 06:48:02;;;;;;;5.13;3.57;;;;;;;23.23;54.48;96725.63;5020266;28;20491;-31
2022/09/26 06:50:28;;;;;;;3.97;3.57;;;;;;;23.29;54.57;96733.41;5028409;28;20225;-31
2022/09/26 06:52:55;;;;;;;6.30;3.53;;;;;;;23.29;54.54;96728.28;5032142;28;20264;-31
2022/09/26 06:55:21;;;;;;;4.33;3.13;;;;;;;23.25;54.73;96716.28;5023621;28;20201;-31
2022/09/26 06:57:48;;;;;;;3.43;2.67;;;;;;;23.31;54.56;96736.00;5025618;28;20239;-30
2022/09/26 07:00:14;;;;;;;4.30;3.17;;;;;;;23.31;54.71;96726.63;5022253;28;20255;-31
2022/09/26 07:03:00;;;;;;;4.13;3.37;;;;;;;23.27;54.62;96729.13;5017283;28;20260;-31
2022/09/26 07:05:26;;;;;;;5.73;3.10;;;;;;;23.31;54.70;96728.31;5017997;28;20222;-31
2022/09/26 07:07:53;;;;;;;4.07;3.20;;;;;;;23.31;54.75;96739.44;5021014;28;20210;-31
2022/09/26 07:10:20;;;;;;;3.67;3.37;;;;;;;23.31;54.85;96729.19;5021910;28;20230;-31
2022/09/26 07:12:47;;;;;;;3.30;3.00;;;;;;;23.29;54.61;96728.28;5020468;28;20209;-31
2022/09/26 07:15:17;;;;;;;4.33;3.37;;;;;;;23.32;54.56;96732.56;5017535;28;20554;-31
2022/09/26 07:17:45;;;;;;;3.63;3.30;;;;;;;23.31;54.86;96730.88;5017483;28;20210;-31
2022/09/26 07:20:12;;;;;;;3.30;2.90;;;;;;;23.30;54.83;96727.44;5017508;28;20670;-31
2022/09/26 07:22:39;;;;;;;3.63;3.10;;;;;;;23.30;55.21;96724.88;5014511;28;20213;-31
2022/09/26 07:25:06;;;;;;;4.10;3.20;;;;;;;23.30;54.93;96721.47;5019587;28;20226;-31
2022/09/26 07:27:32;;;;;;;3.43;3.13;;;;;;;23.26;54.89;96727.38;5017614;28;20562;-31
2022/09/26 07:29:59;;;;;;;4.30;3.20;;;;;;;23.24;55.08;96724.81;5018355;28;20305;-31
2022/09/26 07:32:26;;;;;;;3.30;3.00;;;;;;;23.29;54.87;96733.41;5021264;28;20229;-31
2022/09/26 07:34:52;;;;;;;3.90;3.40;;;;;;;23.29;55.10;96729.97;5021946;28;20571;-31
2022/09/26 07:37:19;;;;;;;3.30;3.00;;;;;;;23.28;55.08;96734.28;5023258;28;20237;-31
2022/09/26 07:39:45;;;;;;;3.13;2.67;;;;;;;23.29;54.90;96737.69;5023220;28;20284;-31
2022/09/26 07:42:20;;;;;;;3.70;3.17;;;;;;;23.24;55.16;96731.66;5026729;28;20271;-31
2022/09/26 07:44:47;;;;;;;3.40;2.87;;;;;;;23.28;55.11;96736.84;5021353;28;20205;-31
2022/09/26 07:50:18;;;;;;;3.23;2.83;;;;;;;23.28;55.11;96728.28;5016078;28;20251;-31
2022/09/26 07:52:46;;;;;;;2.97;2.67;;;;;;;23.22;55.09;96721.38;5018957;28;20562;-31
2022/09/26 07:55:18;;;;;;;2.97;2.67;;;;;;;23.25;55.16;96726.56;5019442;28;20205;-31
2022/09/26 07:57:48;;;;;;;3.37;3.07;;;;;;;23.29;55.20;96727.41;5025934;28;20197;-31
2022/09/26 08:00:16;;;;;;;2.77;2.53;;;;;;;23.27;55.09;96732.53;5025611;28;20226;-31
2022/09/26 08:02:45;;;;;;;2.90;2.70;;;;;;;23.26;55.17;96735.09;5031779;28;20194;-31
2022/09/26 08:05:18;;;;;;;3.30;2.90;;;;;;;23.13;55.03;96708.44;5031595;28;20670;-31
2022/09/26 08:07:46;;;;;;;2.70;2.50;;;;;;;23.29;55.01;96729.97;5031176;28;20398;-31
2022/09/26 08:10:19;;;;;;;3.30;3.00;;;;;;;23.25;55.22;96728.25;5029670;28;20214;-31
2022/09/26 08:12:46;;;;;;;2.63;2.43;;;;;;;23.29;55.03;96737.69;5031184;28;20206;-31
2022/09/26 08:15:12;;;;;;;3.03;2.73;;;;;;;23.30;55.05;96734.28;5021505;28;20198;-31
2022/09/26 08:17:39;;;;;;;4.67;3.00;;;;;;;23.30;55.06;96730.00;5027494;28;20206;-31
2022/09/26 08:20:06;;;;;;;2.73;2.33;;;;;;;23.30;55.10;96727.44;5030896;28;20221;-31
2022/09/26 08:22:33;;;;;;;2.90;2.60;;;;;;;23.30;55.21;96724.88;5024131;28;20588;-31
2022/09/26 08:24:59;;;;;;;4.37;3.30;;;;;;;23.32;54.67;96727.44;5030091;28;20213;-31
2022/09/26 08:27:30;;;;;;;4.57;3.00;;;;;;;23.32;54.29;96719.75;5031821;28;20668;-31
2022/09/26 08:29:57;;;;;;;3.50;3.00;;;;;;;23.32;54.17;96712.06;5029171;28;20221;-31
2022/09/26 08:32:24;;;;;;;4.33;3.00;;;;;;;23.33;54.40;96724.06;5021997;28;20201;-31
2022/09/26 08:34:51;;;;;;;4.67;2.90;;;;;;;23.32;54.53;96724.88;5024173;28;20245;-31
2022/09/26 08:37:19;;;;;;;3.77;2.73;;;;;;;23.30;54.52;96714.63;5027408;28;20198;-31
2022/09/26 08:39:47;;;;;;;3.07;2.77;;;;;;;23.33;54.51;96718.94;5025098;28;20711;-31
2022/09/26 08:42:27;;;;;;;3.07;2.70;;;;;;;23.34;54.56;96715.50;5029103;28;20197;-31
2022/09/26 08:44:56;;;;;;;3.57;2.70;;;;;;;23.34;54.67;96713.81;5034517;28;20601;-31
2022/09/26 08:47:41;;;;;;;3.93;2.80;;;;;;;23.35;54.85;96712.09;5044661;28;20206;-31
2022/09/26 08:50:22;;;;;;;3.63;2.83;;;;;;;23.29;54.69;96692.41;5009378;28;20226;-31
2022/09/26 08:52:55;;;;;;;2.60;2.40;;;;;;;23.29;54.73;96682.13;5013052;28;20311;-31
2022/09/26 08:55:30;;;;;;;2.77;2.57;;;;;;;23.36;54.88;96701.00;5012956;28;20676;-30
2022/09/26 08:58:03;;;;;;;2.90;2.70;;;;;;;23.35;54.96;96701.84;5023811;28;21057;-29
2022/09/26 09:00:31;;;;;;;2.73;2.53;;;;;;;23.35;54.94;96699.28;5028050;28;20589;-30
2022/09/26 09:03:16;;;;;;;2.60;2.40;;;;;;;23.33;54.73;96698.44;5027821;28;20208;-30
2022/09/26 09:05:44;;;;;;;3.60;2.60;;;;;;;23.32;54.88;96700.13;5028922;28;20217;-30
2022/09/26 09:08:20;;;;;;;3.00;2.60;;;;;;;23.32;54.85;96696.69;5029361;28;20213;-30
2022/09/26 09:10:56;;;;;;;3.93;2.93;;;;;;;23.31;55.00;96700.09;5025834;28;20225;-30
2022/09/26 09:13:53;;;;;;;2.80;2.60;;;;;;;23.31;54.91;96688.16;5033912;28;20202;-30
2022/09/26 09:16:31;;;;;;;2.50;2.30;;;;;;;23.31;55.13;96693.28;5026932;28;20194;-29
2022/09/26 09:19:11;;;;;;;3.20;2.47;;;;;;;23.31;55.17;96694.97;5029024;28;20221;-30
2022/09/26 09:22:06;;;;;;;3.93;2.47;;;;;;;23.30;55.05;96691.53;5026474;28;20668;-29
2022/09/26 09:24:52;;;;;;;2.90;2.60;;;;;;;23.30;55.05;96691.53;5016608;28;20203;-30
2022/09/26 09:27:27;;;;;;;3.77;2.80;;;;;;;23.29;55.10;96679.56;5036260;28;20225;-30
2022/09/26 09:30:18;;;;;;;2.70;2.50;;;;;;;23.19;55.19;96656.38;5020504;28;20613;-30
2022/09/26 09:33:10;;;;;;;2.57;2.37;;;;;;;23.30;55.30;96670.19;5017048;28;20198;-30
2022/09/26 09:35:42;;;;;;;4.93;2.50;;;;;;;23.29;55.27;96673.59;5010925;28;20197;-30
2022/09/26 09:38:18;;;;;;;2.30;2.10;;;;;;;23.27;55.15;96662.47;5012440;28;20736;-30
2022/09/26 09:40:47;;;;;;;3.67;2.57;;;;;;;23.29;55.15;96671.88;5010417;28;20229;-30
2022/09/26 09:43:27;;;;;;;4.70;2.17;;;;;;;23.30;55.02;96665.06;5025040;28;20391;-30
2022/09/26 09:46:02;;;;;;;2.40;2.20;;;;;;;23.29;55.25;96668.44;5014879;28;20221;-30
2022/09/26 09:48:28;;;;;;;3.57;2.40;;;;;;;23.30;55.36;96675.31;5024264;28;20685;-30
2022/09/26 09:51:02;;;;;;;3.63;2.67;;;;;;;23.29;55.19;96664.19;5009768;28;20660;-30
2022/09/26 09:53:43;;;;;;;2.63;2.40;;;;;;;23.28;55.32;96662.50;5025607;28;20201;-30
2022/09/26 09:56:24;;;;;;;3.00;2.30;;;;;;;23.30;55.26;96670.19;5025792;28;20668;-30
2022/09/26 09:59:15;;;;;;;2.17;2.07;;;;;;;23.31;55.13;96666.78;5020708;28;20224;-30
2022/09/26 10:01:43;;;;;;;2.60;2.40;;;;;;;23.31;55.33;96661.66;5022613;28;20209;-30
2022/09/26 10:04:19;;;;;;;3.30;2.33;;;;;;;23.32;55.16;96653.09;5010978;28;20696;-30
2022/09/26 10:06:47;;;;;;;4.00;2.57;;;;;;;23.21;55.29;96636.75;5026377;28;20220;-30
2022/09/26 10:09:27;;;;;;;2.43;2.10;;;;;;;23.23;55.28;96643.59;5026461;28;20224;-30
2022/09/26 10:12:18;;;;;;;3.97;2.40;;;;;;;23.16;54.93;96618.78;5011598;28;20561;-30
2022/09/26 10:14:51;;;;;;;2.93;2.10;;;;;;;23.34;54.70;96647.16;5022252;28;20205;-30
2022/09/26 10:17:19;;;;;;;5.73;2.50;;;;;;;23.29;54.89;96638.56;5024503;28;20683;-30
2022/09/26 10:19:46;;;;;;;2.67;2.40;;;;;;;23.34;54.78;96646.28;5030585;28;20752;-31
2022/09/26 10:22:28;;;;;;;4.10;2.43;;;;;;;23.27;54.74;96626.59;5030680;28;20209;-31
2022/09/26 10:24:59;;;;;;;2.93;2.33;;;;;;;23.36;54.52;96648.00;5031657;28;20201;-29
2022/09/26 10:27:35;;;;;;;3.47;2.43;;;;;;;23.36;55.04;96639.47;5027794;28;20221;-30
2022/09/26 10:30:18;;;;;;;2.43;2.23;;;;;;;23.36;54.65;96634.34;5014406;28;20608;-30
2022/09/26 10:32:49;;;;;;;2.47;2.27;;;;;;;23.38;55.13;96635.19;5030079;28;20616;-31
2022/09/26 10:35:40;;;;;;;3.37;2.27;;;;;;;23.38;54.78;96616.41;5031783;28;20196;-30
2022/09/26 10:38:17;;;;;;;2.17;2.00;;;;;;;23.37;54.63;96615.53;5039681;28;20565;-30
2022/09/26 10:40:51;;;;;;;3.23;2.53;;;;;;;23.38;54.90;96624.09;5029604;28;20224;-30
2022/09/26 10:43:21;;;;;;;2.40;2.20;;;;;;;23.38;54.79;96621.53;5031415;28;20237;-30
2022/09/26 10:45:48;;;;;;;3.47;2.30;;;;;;;23.33;54.62;96611.25;5031400;28;20217;-30
2022/09/26 10:48:20;;;;;;;2.93;2.40;;;;;;;23.34;54.85;96610.38;5027795;28;20213;-31
2022/09/26 10:50:49;;;;;;;4.60;3.00;;;;;;;23.36;54.89;96608.72;5028093;28;20225;-30
2022/09/26 10:53:18;;;;;;;6.03;3.40;;;;;;;23.35;54.71;96602.72;5029422;28;20197;-31
2022/09/26 10:55:52;;;;;;;4.07;3.10;;;;;;;23.30;54.73;96598.41;5031810;28;20228;-30
2022/09/26 10:58:24;;;;;;;4.53;3.17;;;;;;;23.35;54.85;96606.97;5013188;28;20791;-29
2022/09/26 11:00:51;;;;;;;5.63;3.43;;;;;;;23.32;54.93;96596.69;5018344;28;20206;-29
2022/09/26 11:03:36;;;;;;;5.23;3.23;;;;;;;23.34;54.72;96600.13;5016340;28;20194;-31
2022/09/26 11:06:03;;;;;;;5.80;3.63;;;;;;;23.33;54.73;96601.84;5024067;28;20304;-30
2022/09/26 11:08:33;;;;;;;5.33;2.70;;;;;;;23.32;54.87;96599.25;5017431;28;20205;-30
2022/09/26 11:11:02;;;;;;;4.83;3.10;;;;;;;23.32;54.84;96597.56;5031616;28;20209;-30
2022/09/26 11:13:53;;;;;;;4.00;2.70;;;;;;;23.32;54.81;96594.13;5027677;28;20208;-30
2022/09/26 11:16:19;;;;;;;6.17;3.00;;;;;;;23.32;54.95;96591.56;5022943;28;20201;-30
2022/09/26 11:18:49;;;;;;;4.50;2.93;;;;;;;23.32;54.85;96591.56;5028525;28;20214;-30
2022/09/26 11:21:45;;;;;;;4.03;3.10;;;;;;;23.32;54.81;96589.00;5020298;28;20691;-30
2022/09/26 11:24:29;;;;;;;3.90;2.90;;;;;;;23.27;54.81;96580.44;5040027;28;20224;-30
2022/09/26 11:27:18;;;;;;;4.27;2.80;;;;;;;23.32;54.93;96581.31;5034698;28;20222;-30
2022/09/26 11:30:11;;;;;;;5.63;3.40;;;;;;;23.32;54.87;96583.88;5027714;28;20703;-29
2022/09/26 11:32:46;;;;;;;5.60;3.80;;;;;;;23.20;54.05;96558.13;5020483;28;20307;-30
2022/09/26 11:35:28;;;;;;;7.33;4.40;;;;;;;23.29;54.19;96564.22;5013788;28;20614;-30
2022/09/26 11:38:23;;;;;;;8.67;4.00;;;;;;;23.31;53.79;96565.09;5020649;28;20206;-30
2022/09/26 11:41:01;;;;;;;5.97;3.77;;;;;;;23.31;54.28;96551.41;5026935;28;20704;-30
2022/09/26 11:43:50;;;;;;;5.27;3.70;;;;;;;23.31;54.41;96552.28;5027132;28;20300;-30
2022/09/26 11:46:35;;;;;;;5.33;3.40;;;;;;;22.30;54.50;96372.94;5023796;28;20232;-30
2022/09/26 11:49:20;;;;;;;4.00;3.37;;;;;;;23.32;54.69;96547.97;5022153;28;20229;-30
2022/09/26 11:52:06;;;;;;;6.17;3.53;;;;;;;23.31;54.87;96536.88;5020591;28;20202;-30
2022/09/26 11:54:32;;;;;;;5.30;2.97;;;;;;;23.33;54.81;96542.03;5030407;28;20194;-31
2022/09/26 11:57:36;;;;;;;5.33;3.57;;;;;;;23.34;54.67;96534.34;5030381;28;20202;-30
2022/09/26 12:00:23;;;;;;;5.57;3.70;;;;;;;23.34;54.42;96528.34;5035320;28;20693;-31
2022/09/26 12:02:57;;;;;;;6.87;3.97;;;;;;;23.34;54.51;96518.97;5034201;28;20259;-30